sensor_id;sensor_type;location;lat;lon;timestamp;temperature;humidity
7934;DHT22;4012;48.896;9.192;2023-08-30T00:00:19;14.30;99.90
7934;DHT22;4012;48.896;9.192;2023-08-30T00:02:47;14.30;99.90
7934;DHT22;4012;48.896;9.192;2023-08-30T00:05:13;14.40;99.90
7934;DHT22;4012;48.896;9.192;2023-08-30T00:07:39;14.40;99.90
7934;DHT22;4012;48.896;9.192;2023-08-30T00:10:08;14.40;99.90
7934;DHT22;4012;48.896;9.192;2023-08-30T00:12:35;14.40;99.90
7934;DHT22;4012;48.896;9.192;2023-08-30T00:15:01;14.40;99.90
7934;DHT22;4012;48.896;9.192;2023-08-30T00:17:27;14.30;99.90
7934;DHT22;4012;48.896;9.192;2023-08-30T00:19:52;14.30;99.90
7934;DHT22;4012;48.896;9.192;2023-08-30T00:22:21;14.40;99.90
7934;DHT22;4012;48.896;9.192;2023-08-30T00:24:47;14.30;99.90
7934;DHT22;4012;48.896;9.192;2023-08-30T00:27:13;14.30;99.90
7934;DHT22;4012;48.896;9.192;2023-08-30T00:29:39;14.30;99.90
7934;DHT22;4012;48.896;9.192;2023-08-30T00:32:04;14.30;99.90
7934;DHT22;4012;48.896;9.192;2023-08-30T00:34:30;14.30;99.90
7934;DHT22;4012;48.896;9.192;2023-08-30T00:36:56;14.20;99.90
7934;DHT22;4012;48.896;9.192;2023-08-30T00:39:21;14.10;99.90
7934;DHT22;4012;48.896;9.192;2023-08-30T00:41:47;14.10;99.90
7934;DHT22;4012;48.896;9.192;2023-08-30T00:44:13;14.10;99.90
7934;DHT22;4012;48.896;9.192;2023-08-30T00:46:38;14.00;99.90
7934;DHT22;4012;48.896;9.192;2023-08-30T00:49:04;14.00;99.90
7934;DHT22;4012;48.896;9.192;2023-08-30T00:51:31;14.00;99.90
7934;DHT22;4012;48.896;9.192;2023-08-30T00:53:58;14.10;99.90
7934;DHT22;4012;48.896;9.192;2023-08-30T00:56:25;14.00;99.90
7934;DHT22;4012;48.896;9.192;2023-08-30T00:58:51;14.00;99.90
7934;DHT22;4012;48.896;9.192;2023-08-30T01:01:16;14.00;99.90
7934;DHT22;4012;48.896;9.192;2023-08-30T01:03:43;14.00;99.90
7934;DHT22;4012;48.896;9.192;2023-08-30T01:06:09;14.00;99.90
7934;DHT22;4012;48.896;9.192;2023-08-30T01:08:38;14.00;99.90
7934;DHT22;4012;48.896;9.192;2023-08-30T01:11:24;14.10;99.90
7934;DHT22;4012;48.896;9.192;2023-08-30T01:14:12;14.10;99.90
7934;DHT22;4012;48.896;9.192;2023-08-30T01:16:39;14.00;99.90
7934;DHT22;4012;48.896;9.192;2023-08-30T01:25:09;13.90;99.90
7934;DHT22;4012;48.896;9.192;2023-08-30T01:27:36;13.80;99.90
7934;DHT22;4012;48.896;9.192;2023-08-30T01:30:05;13.90;99.90
7934;DHT22;4012;48.896;9.192;2023-08-30T01:32:34;13.90;99.90
7934;DHT22;4012;48.896;9.192;2023-08-30T01:35:00;13.80;99.90
7934;DHT22;4012;48.896;9.192;2023-08-30T01:37:27;13.80;99.90
7934;DHT22;4012;48.896;9.192;2023-08-30T01:39:54;13.80;99.90
7934;DHT22;4012;48.896;9.192;2023-08-30T01:42:22;13.70;99.90
7934;DHT22;4012;48.896;9.192;2023-08-30T01:44:54;13.70;99.90
7934;DHT22;4012;48.896;9.192;2023-08-30T01:47:23;13.70;99.90
7934;DHT22;4012;48.896;9.192;2023-08-30T01:49:51;13.60;99.90
7934;DHT22;4012;48.896;9.192;2023-08-30T01:52:17;13.50;99.90
7934;DHT22;4012;48.896;9.192;2023-08-30T01:54:44;13.50;99.90
7934;DHT22;4012;48.896;9.192;2023-08-30T01:57:10;13.50;99.90
7934;DHT22;4012;48.896;9.192;2023-08-30T01:59:36;13.50;99.90
7934;DHT22;4012;48.896;9.192;2023-08-30T02:02:01;13.50;99.90
7934;DHT22;4012;48.896;9.192;2023-08-30T02:04:29;13.50;99.90
7934;DHT22;4012;48.896;9.192;2023-08-30T02:07:03;13.50;99.90
7934;DHT22;4012;48.896;9.192;2023-08-30T02:12:16;13.60;99.90
7934;DHT22;4012;48.896;9.192;2023-08-30T02:14:45;13.60;99.90
7934;DHT22;4012;48.896;9.192;2023-08-30T02:17:14;13.60;99.90
7934;DHT22;4012;48.896;9.192;2023-08-30T02:19:44;13.60;99.90
7934;DHT22;4012;48.896;9.192;2023-08-30T02:22:10;13.60;99.90
7934;DHT22;4012;48.896;9.192;2023-08-30T02:24:35;13.60;99.90
7934;DHT22;4012;48.896;9.192;2023-08-30T02:27:01;13.60;99.90
7934;DHT22;4012;48.896;9.192;2023-08-30T02:29:27;13.60;99.90
7934;DHT22;4012;48.896;9.192;2023-08-30T02:31:52;13.50;99.90
7934;DHT22;4012;48.896;9.192;2023-08-30T02:34:18;13.50;99.90
7934;DHT22;4012;48.896;9.192;2023-08-30T02:36:43;13.50;99.90
7934;DHT22;4012;48.896;9.192;2023-08-30T02:39:09;13.50;99.90
7934;DHT22;4012;48.896;9.192;2023-08-30T02:41:35;13.50;99.90
7934;DHT22;4012;48.896;9.192;2023-08-30T02:44:01;13.40;99.90
7934;DHT22;4012;48.896;9.192;2023-08-30T02:46:27;13.50;99.90
7934;DHT22;4012;48.896;9.192;2023-08-30T02:48:52;13.50;99.90
7934;DHT22;4012;48.896;9.192;2023-08-30T02:51:18;13.40;99.90
7934;DHT22;4012;48.896;9.192;2023-08-30T02:53:44;13.40;99.90
7934;DHT22;4012;48.896;9.192;2023-08-30T02:56:09;13.40;99.90
7934;DHT22;4012;48.896;9.192;2023-08-30T02:58:36;13.40;99.90
7934;DHT22;4012;48.896;9.192;2023-08-30T03:01:02;13.40;99.90
7934;DHT22;4012;48.896;9.192;2023-08-30T03:03:28;13.40;99.90
7934;DHT22;4012;48.896;9.192;2023-08-30T03:05:54;13.40;99.90
7934;DHT22;4012;48.896;9.192;2023-08-30T03:08:19;13.40;99.90
7934;DHT22;4012;48.896;9.192;2023-08-30T03:10:45;13.40;99.90
7934;DHT22;4012;48.896;9.192;2023-08-30T03:13:10;13.40;99.90
7934;DHT22;4012;48.896;9.192;2023-08-30T03:15:36;13.50;99.90
7934;DHT22;4012;48.896;9.192;2023-08-30T03:18:01;13.50;99.90
7934;DHT22;4012;48.896;9.192;2023-08-30T03:20:27;13.50;99.90
7934;DHT22;4012;48.896;9.192;2023-08-30T03:22:56;13.60;99.90
7934;DHT22;4012;48.896;9.192;2023-08-30T03:25:23;13.60;99.90
7934;DHT22;4012;48.896;9.192;2023-08-30T03:27:48;13.70;99.90
7934;DHT22;4012;48.896;9.192;2023-08-30T03:30:14;13.70;99.90
7934;DHT22;4012;48.896;9.192;2023-08-30T03:32:39;13.70;99.90
7934;DHT22;4012;48.896;9.192;2023-08-30T03:35:05;13.70;99.90
7934;DHT22;4012;48.896;9.192;2023-08-30T03:37:31;13.70;99.90
7934;DHT22;4012;48.896;9.192;2023-08-30T03:39:57;13.70;99.90
7934;DHT22;4012;48.896;9.192;2023-08-30T03:42:22;13.70;99.90
7934;DHT22;4012;48.896;9.192;2023-08-30T03:44:48;13.70;99.90
7934;DHT22;4012;48.896;9.192;2023-08-30T03:47:14;13.70;99.90
7934;DHT22;4012;48.896;9.192;2023-08-30T03:49:39;13.70;99.90
7934;DHT22;4012;48.896;9.192;2023-08-30T03:52:05;13.70;99.90
7934;DHT22;4012;48.896;9.192;2023-08-30T03:54:31;13.70;99.90
7934;DHT22;4012;48.896;9.192;2023-08-30T03:56:57;13.70;99.90
7934;DHT22;4012;48.896;9.192;2023-08-30T03:59:22;13.80;99.90
7934;DHT22;4012;48.896;9.192;2023-08-30T04:01:49;13.80;99.90
7934;DHT22;4012;48.896;9.192;2023-08-30T04:04:15;13.80;99.90
7934;DHT22;4012;48.896;9.192;2023-08-30T04:06:40;13.70;99.90
7934;DHT22;4012;48.896;9.192;2023-08-30T04:09:06;13.70;99.90
7934;DHT22;4012;48.896;9.192;2023-08-30T04:11:31;13.70;99.90
7934;DHT22;4012;48.896;9.192;2023-08-30T04:13:58;13.70;99.90
7934;DHT22;4012;48.896;9.192;2023-08-30T04:16:23;13.70;99.90
7934;DHT22;4012;48.896;9.192;2023-08-30T04:18:49;13.70;99.90
7934;DHT22;4012;48.896;9.192;2023-08-30T04:21:14;13.70;99.90
7934;DHT22;4012;48.896;9.192;2023-08-30T04:23:40;13.70;99.90
7934;DHT22;4012;48.896;9.192;2023-08-30T04:26:05;13.70;99.90
7934;DHT22;4012;48.896;9.192;2023-08-30T04:28:31;13.60;99.90
7934;DHT22;4012;48.896;9.192;2023-08-30T04:30:57;13.60;99.90
7934;DHT22;4012;48.896;9.192;2023-08-30T04:33:23;13.60;99.90
7934;DHT22;4012;48.896;9.192;2023-08-30T04:35:53;13.60;99.90
7934;DHT22;4012;48.896;9.192;2023-08-30T04:38:19;13.60;99.90
7934;DHT22;4012;48.896;9.192;2023-08-30T04:40:45;13.60;99.90
7934;DHT22;4012;48.896;9.192;2023-08-30T04:43:11;13.50;99.90
7934;DHT22;4012;48.896;9.192;2023-08-30T04:45:37;13.60;99.90
7934;DHT22;4012;48.896;9.192;2023-08-30T04:48:03;13.70;99.90
7934;DHT22;4012;48.896;9.192;2023-08-30T04:50:28;13.70;99.90
7934;DHT22;4012;48.896;9.192;2023-08-30T04:52:54;13.80;99.90
7934;DHT22;4012;48.896;9.192;2023-08-30T04:55:19;13.70;99.90
7934;DHT22;4012;48.896;9.192;2023-08-30T04:57:45;13.60;99.90
7934;DHT22;4012;48.896;9.192;2023-08-30T05:00:13;13.70;99.90
7934;DHT22;4012;48.896;9.192;2023-08-30T05:02:39;13.70;99.90
7934;DHT22;4012;48.896;9.192;2023-08-30T05:05:07;13.70;99.90
7934;DHT22;4012;48.896;9.192;2023-08-30T05:07:33;13.80;99.90
7934;DHT22;4012;48.896;9.192;2023-08-30T05:09:59;13.80;99.90
7934;DHT22;4012;48.896;9.192;2023-08-30T05:12:24;13.80;99.90
7934;DHT22;4012;48.896;9.192;2023-08-30T05:14:50;13.80;99.90
7934;DHT22;4012;48.896;9.192;2023-08-30T05:17:15;13.80;99.90
7934;DHT22;4012;48.896;9.192;2023-08-30T05:19:41;13.70;99.90
7934;DHT22;4012;48.896;9.192;2023-08-30T05:22:06;13.80;99.90
7934;DHT22;4012;48.896;9.192;2023-08-30T05:24:32;13.90;99.90
7934;DHT22;4012;48.896;9.192;2023-08-30T05:26:59;13.90;99.90
7934;DHT22;4012;48.896;9.192;2023-08-30T05:29:24;13.90;99.90
7934;DHT22;4012;48.896;9.192;2023-08-30T05:31:50;13.90;99.90
7934;DHT22;4012;48.896;9.192;2023-08-30T05:34:18;13.90;99.90
7934;DHT22;4012;48.896;9.192;2023-08-30T05:36:43;14.00;99.90
7934;DHT22;4012;48.896;9.192;2023-08-30T05:39:09;14.00;99.90
7934;DHT22;4012;48.896;9.192;2023-08-30T05:41:34;14.00;99.90
7934;DHT22;4012;48.896;9.192;2023-08-30T05:44:00;14.10;99.90
7934;DHT22;4012;48.896;9.192;2023-08-30T05:46:25;14.10;99.90
7934;DHT22;4012;48.896;9.192;2023-08-30T05:48:51;14.10;99.90
7934;DHT22;4012;48.896;9.192;2023-08-30T05:51:17;14.10;99.90
7934;DHT22;4012;48.896;9.192;2023-08-30T05:53:42;14.10;99.90
7934;DHT22;4012;48.896;9.192;2023-08-30T05:56:08;14.10;99.90
7934;DHT22;4012;48.896;9.192;2023-08-30T05:58:34;14.10;99.90
7934;DHT22;4012;48.896;9.192;2023-08-30T06:01:00;14.10;99.90
7934;DHT22;4012;48.896;9.192;2023-08-30T06:03:26;14.20;99.90
7934;DHT22;4012;48.896;9.192;2023-08-30T06:05:53;14.30;99.90
7934;DHT22;4012;48.896;9.192;2023-08-30T06:08:18;14.30;99.90
7934;DHT22;4012;48.896;9.192;2023-08-30T06:10:44;14.30;99.90
7934;DHT22;4012;48.896;9.192;2023-08-30T06:13:09;14.30;99.90
7934;DHT22;4012;48.896;9.192;2023-08-30T06:15:36;14.40;99.90
7934;DHT22;4012;48.896;9.192;2023-08-30T06:18:03;14.50;99.90
7934;DHT22;4012;48.896;9.192;2023-08-30T06:20:29;14.50;99.90
7934;DHT22;4012;48.896;9.192;2023-08-30T06:22:54;14.60;99.90
7934;DHT22;4012;48.896;9.192;2023-08-30T06:25:20;14.70;99.90
7934;DHT22;4012;48.896;9.192;2023-08-30T06:27:56;14.70;99.90
7934;DHT22;4012;48.896;9.192;2023-08-30T06:30:27;14.70;99.90
7934;DHT22;4012;48.896;9.192;2023-08-30T06:32:53;14.80;99.90
7934;DHT22;4012;48.896;9.192;2023-08-30T06:35:19;14.90;99.90
7934;DHT22;4012;48.896;9.192;2023-08-30T06:37:44;14.90;99.90
7934;DHT22;4012;48.896;9.192;2023-08-30T06:40:10;14.90;99.90
7934;DHT22;4012;48.896;9.192;2023-08-30T06:42:36;15.00;99.90
7934;DHT22;4012;48.896;9.192;2023-08-30T06:45:02;15.10;99.90
7934;DHT22;4012;48.896;9.192;2023-08-30T06:47:29;15.20;99.90
7934;DHT22;4012;48.896;9.192;2023-08-30T06:49:55;15.30;99.90
7934;DHT22;4012;48.896;9.192;2023-08-30T06:52:20;15.40;99.90
7934;DHT22;4012;48.896;9.192;2023-08-30T06:54:46;15.60;99.90
7934;DHT22;4012;48.896;9.192;2023-08-30T06:57:11;15.70;99.90
7934;DHT22;4012;48.896;9.192;2023-08-30T06:59:37;15.70;99.90
7934;DHT22;4012;48.896;9.192;2023-08-30T07:02:03;15.80;99.90
7934;DHT22;4012;48.896;9.192;2023-08-30T07:04:29;15.80;99.90
7934;DHT22;4012;48.896;9.192;2023-08-30T07:06:55;15.90;99.90
7934;DHT22;4012;48.896;9.192;2023-08-30T07:09:21;15.90;99.90
7934;DHT22;4012;48.896;9.192;2023-08-30T07:11:48;15.90;99.90
7934;DHT22;4012;48.896;9.192;2023-08-30T07:14:14;15.90;99.90
7934;DHT22;4012;48.896;9.192;2023-08-30T07:16:40;15.90;99.90
7934;DHT22;4012;48.896;9.192;2023-08-30T07:19:26;15.90;99.90
7934;DHT22;4012;48.896;9.192;2023-08-30T07:21:52;16.00;99.90
7934;DHT22;4012;48.896;9.192;2023-08-30T07:24:17;16.00;99.90
7934;DHT22;4012;48.896;9.192;2023-08-30T07:26:43;16.00;99.90
7934;DHT22;4012;48.896;9.192;2023-08-30T07:29:09;15.90;99.90
7934;DHT22;4012;48.896;9.192;2023-08-30T07:31:35;15.90;99.90
7934;DHT22;4012;48.896;9.192;2023-08-30T07:34:00;16.00;99.90
7934;DHT22;4012;48.896;9.192;2023-08-30T07:36:27;16.00;99.90
7934;DHT22;4012;48.896;9.192;2023-08-30T07:38:53;16.10;99.90
7934;DHT22;4012;48.896;9.192;2023-08-30T07:41:19;16.20;99.90
7934;DHT22;4012;48.896;9.192;2023-08-30T07:43:45;16.30;99.90
7934;DHT22;4012;48.896;9.192;2023-08-30T07:46:10;16.40;99.90
7934;DHT22;4012;48.896;9.192;2023-08-30T07:48:36;16.50;99.90
7934;DHT22;4012;48.896;9.192;2023-08-30T07:51:01;16.60;99.90
7934;DHT22;4012;48.896;9.192;2023-08-30T07:53:27;16.70;99.90
7934;DHT22;4012;48.896;9.192;2023-08-30T07:55:53;16.60;99.90
7934;DHT22;4012;48.896;9.192;2023-08-30T07:58:18;16.70;99.90
7934;DHT22;4012;48.896;9.192;2023-08-30T08:00:44;16.80;99.90
7934;DHT22;4012;48.896;9.192;2023-08-30T08:03:09;16.90;99.90
7934;DHT22;4012;48.896;9.192;2023-08-30T08:05:38;16.90;99.90
7934;DHT22;4012;48.896;9.192;2023-08-30T08:08:03;17.10;99.90
7934;DHT22;4012;48.896;9.192;2023-08-30T08:10:33;17.30;99.90
7934;DHT22;4012;48.896;9.192;2023-08-30T08:13:01;17.50;99.90
7934;DHT22;4012;48.896;9.192;2023-08-30T08:15:29;17.70;99.90
7934;DHT22;4012;48.896;9.192;2023-08-30T08:17:56;17.80;99.90
7934;DHT22;4012;48.896;9.192;2023-08-30T08:20:22;17.90;99.90
7934;DHT22;4012;48.896;9.192;2023-08-30T08:22:48;17.80;99.90
7934;DHT22;4012;48.896;9.192;2023-08-30T08:25:14;17.40;99.90
7934;DHT22;4012;48.896;9.192;2023-08-30T08:27:41;17.60;99.90
7934;DHT22;4012;48.896;9.192;2023-08-30T08:30:07;17.90;99.90
7934;DHT22;4012;48.896;9.192;2023-08-30T08:32:33;18.40;99.90
7934;DHT22;4012;48.896;9.192;2023-08-30T08:34:59;18.50;99.90
7934;DHT22;4012;48.896;9.192;2023-08-30T08:37:24;18.40;99.90
7934;DHT22;4012;48.896;9.192;2023-08-30T08:39:50;18.70;99.90
7934;DHT22;4012;48.896;9.192;2023-08-30T08:42:19;18.80;99.90
7934;DHT22;4012;48.896;9.192;2023-08-30T08:44:50;19.10;99.90
7934;DHT22;4012;48.896;9.192;2023-08-30T08:47:17;19.40;99.90
7934;DHT22;4012;48.896;9.192;2023-08-30T08:49:44;19.60;99.90
7934;DHT22;4012;48.896;9.192;2023-08-30T08:52:10;20.40;99.90
7934;DHT22;4012;48.896;9.192;2023-08-30T08:54:39;21.50;99.90
7934;DHT22;4012;48.896;9.192;2023-08-30T08:57:06;22.00;99.90
7934;DHT22;4012;48.896;9.192;2023-08-30T08:59:32;22.80;99.90
7934;DHT22;4012;48.896;9.192;2023-08-30T09:01:59;23.50;99.90
7934;DHT22;4012;48.896;9.192;2023-08-30T09:04:25;24.00;99.90
7934;DHT22;4012;48.896;9.192;2023-08-30T09:06:51;24.60;99.90
7934;DHT22;4012;48.896;9.192;2023-08-30T09:09:17;25.10;99.90
7934;DHT22;4012;48.896;9.192;2023-08-30T09:11:43;24.90;99.90
7934;DHT22;4012;48.896;9.192;2023-08-30T09:14:09;24.60;99.90
7934;DHT22;4012;48.896;9.192;2023-08-30T09:16:35;24.80;99.90
7934;DHT22;4012;48.896;9.192;2023-08-30T09:19:02;25.20;99.90
7934;DHT22;4012;48.896;9.192;2023-08-30T09:21:28;24.30;99.90
7934;DHT22;4012;48.896;9.192;2023-08-30T09:24:01;24.20;99.90
7934;DHT22;4012;48.896;9.192;2023-08-30T09:26:28;24.80;99.90
7934;DHT22;4012;48.896;9.192;2023-08-30T09:28:55;25.90;99.90
7934;DHT22;4012;48.896;9.192;2023-08-30T09:31:21;26.30;99.90
7934;DHT22;4012;48.896;9.192;2023-08-30T09:33:46;26.00;99.90
7934;DHT22;4012;48.896;9.192;2023-08-30T09:36:13;25.00;99.90
7934;DHT22;4012;48.896;9.192;2023-08-30T09:38:39;25.50;99.90
7934;DHT22;4012;48.896;9.192;2023-08-30T09:41:05;25.90;99.90
7934;DHT22;4012;48.896;9.192;2023-08-30T09:43:35;26.30;99.90
7934;DHT22;4012;48.896;9.192;2023-08-30T09:46:04;26.50;99.90
7934;DHT22;4012;48.896;9.192;2023-08-30T09:48:31;26.60;99.90
7934;DHT22;4012;48.896;9.192;2023-08-30T09:50:58;26.50;99.90
7934;DHT22;4012;48.896;9.192;2023-08-30T09:53:26;26.60;99.90
7934;DHT22;4012;48.896;9.192;2023-08-30T09:55:54;26.80;99.90
7934;DHT22;4012;48.896;9.192;2023-08-30T09:58:21;26.50;99.90
7934;DHT22;4012;48.896;9.192;2023-08-30T10:00:48;26.70;99.90
7934;DHT22;4012;48.896;9.192;2023-08-30T10:03:15;26.40;99.90
7934;DHT22;4012;48.896;9.192;2023-08-30T10:05:43;26.40;99.90
7934;DHT22;4012;48.896;9.192;2023-08-30T10:08:09;25.60;99.90
7934;DHT22;4012;48.896;9.192;2023-08-30T10:10:37;26.10;99.90
7934;DHT22;4012;48.896;9.192;2023-08-30T10:13:05;25.20;99.90
7934;DHT22;4012;48.896;9.192;2023-08-30T10:15:35;23.10;99.90
7934;DHT22;4012;48.896;9.192;2023-08-30T10:18:06;23.90;99.90
7934;DHT22;4012;48.896;9.192;2023-08-30T10:20:33;25.30;99.90
7934;DHT22;4012;48.896;9.192;2023-08-30T10:23:00;25.10;99.90
7934;DHT22;4012;48.896;9.192;2023-08-30T10:25:28;25.50;99.90
7934;DHT22;4012;48.896;9.192;2023-08-30T10:27:55;25.20;99.90
7934;DHT22;4012;48.896;9.192;2023-08-30T10:30:21;23.40;99.90
7934;DHT22;4012;48.896;9.192;2023-08-30T10:32:48;24.20;99.90
7934;DHT22;4012;48.896;9.192;2023-08-30T10:35:15;25.60;99.90
7934;DHT22;4012;48.896;9.192;2023-08-30T10:37:42;26.20;99.90
7934;DHT22;4012;48.896;9.192;2023-08-30T10:40:08;25.20;99.90
7934;DHT22;4012;48.896;9.192;2023-08-30T10:42:34;24.10;99.90
7934;DHT22;4012;48.896;9.192;2023-08-30T10:45:01;24.30;99.90
7934;DHT22;4012;48.896;9.192;2023-08-30T10:47:32;25.40;99.90
7934;DHT22;4012;48.896;9.192;2023-08-30T10:50:04;24.80;99.90
7934;DHT22;4012;48.896;9.192;2023-08-30T10:52:30;24.70;99.90
7934;DHT22;4012;48.896;9.192;2023-08-30T10:55:25;23.70;99.90
7934;DHT22;4012;48.896;9.192;2023-08-30T10:58:02;23.70;99.90
7934;DHT22;4012;48.896;9.192;2023-08-30T11:00:29;23.70;99.90
7934;DHT22;4012;48.896;9.192;2023-08-30T11:02:55;24.10;99.90
7934;DHT22;4012;48.896;9.192;2023-08-30T11:05:22;23.30;99.90
7934;DHT22;4012;48.896;9.192;2023-08-30T11:07:49;23.50;99.90
7934;DHT22;4012;48.896;9.192;2023-08-30T11:10:16;22.90;99.90
7934;DHT22;4012;48.896;9.192;2023-08-30T11:12:46;22.70;99.90
7934;DHT22;4012;48.896;9.192;2023-08-30T11:15:13;22.90;99.90
7934;DHT22;4012;48.896;9.192;2023-08-30T11:17:41;22.40;99.90
7934;DHT22;4012;48.896;9.192;2023-08-30T11:20:08;21.70;99.90
7934;DHT22;4012;48.896;9.192;2023-08-30T11:22:44;21.20;99.90
7934;DHT22;4012;48.896;9.192;2023-08-30T11:25:11;21.10;99.90
7934;DHT22;4012;48.896;9.192;2023-08-30T11:27:37;20.90;99.90
7934;DHT22;4012;48.896;9.192;2023-08-30T11:30:04;20.80;99.90
7934;DHT22;4012;48.896;9.192;2023-08-30T11:32:42;20.70;99.90
7934;DHT22;4012;48.896;9.192;2023-08-30T11:35:11;20.70;99.90
7934;DHT22;4012;48.896;9.192;2023-08-30T11:37:36;20.70;99.90
7934;DHT22;4012;48.896;9.192;2023-08-30T11:40:03;20.60;99.90
7934;DHT22;4012;48.896;9.192;2023-08-30T11:42:30;20.40;99.90
7934;DHT22;4012;48.896;9.192;2023-08-30T11:44:58;20.20;99.90
7934;DHT22;4012;48.896;9.192;2023-08-30T11:47:24;19.70;99.90
7934;DHT22;4012;48.896;9.192;2023-08-30T11:49:51;19.50;99.90
7934;DHT22;4012;48.896;9.192;2023-08-30T11:52:18;19.60;99.90
7934;DHT22;4012;48.896;9.192;2023-08-30T11:54:46;19.70;99.90
7934;DHT22;4012;48.896;9.192;2023-08-30T11:57:12;19.60;99.90
7934;DHT22;4012;48.896;9.192;2023-08-30T11:59:38;19.20;99.90
7934;DHT22;4012;48.896;9.192;2023-08-30T12:02:04;19.00;99.90
7934;DHT22;4012;48.896;9.192;2023-08-30T12:04:30;19.20;99.90
7934;DHT22;4012;48.896;9.192;2023-08-30T12:06:56;19.30;99.90
7934;DHT22;4012;48.896;9.192;2023-08-30T12:09:22;19.30;99.90
7934;DHT22;4012;48.896;9.192;2023-08-30T12:11:50;19.40;99.90
7934;DHT22;4012;48.896;9.192;2023-08-30T12:14:16;19.60;99.90
7934;DHT22;4012;48.896;9.192;2023-08-30T12:16:44;19.50;99.90
7934;DHT22;4012;48.896;9.192;2023-08-30T12:19:12;19.60;99.90
7934;DHT22;4012;48.896;9.192;2023-08-30T12:21:43;19.60;99.90
7934;DHT22;4012;48.896;9.192;2023-08-30T12:24:09;19.60;99.90
7934;DHT22;4012;48.896;9.192;2023-08-30T12:26:35;19.50;99.90
7934;DHT22;4012;48.896;9.192;2023-08-30T12:29:03;19.50;99.90
7934;DHT22;4012;48.896;9.192;2023-08-30T12:31:29;19.60;99.90
7934;DHT22;4012;48.896;9.192;2023-08-30T12:33:56;19.60;99.90
7934;DHT22;4012;48.896;9.192;2023-08-30T12:36:22;19.60;99.90
7934;DHT22;4012;48.896;9.192;2023-08-30T12:38:48;19.60;99.90
7934;DHT22;4012;48.896;9.192;2023-08-30T12:41:13;19.60;99.90
7934;DHT22;4012;48.896;9.192;2023-08-30T12:43:39;19.60;99.90
7934;DHT22;4012;48.896;9.192;2023-08-30T12:46:04;19.60;99.90
7934;DHT22;4012;48.896;9.192;2023-08-30T12:48:30;19.90;99.90
7934;DHT22;4012;48.896;9.192;2023-08-30T12:50:56;20.20;99.90
7934;DHT22;4012;48.896;9.192;2023-08-30T12:53:21;20.60;99.90
7934;DHT22;4012;48.896;9.192;2023-08-30T12:55:47;20.90;99.90
7934;DHT22;4012;48.896;9.192;2023-08-30T12:58:13;21.30;99.90
7934;DHT22;4012;48.896;9.192;2023-08-30T13:00:39;21.50;99.90
7934;DHT22;4012;48.896;9.192;2023-08-30T13:03:05;21.60;99.90
7934;DHT22;4012;48.896;9.192;2023-08-30T13:05:31;21.70;99.90
7934;DHT22;4012;48.896;9.192;2023-08-30T13:07:58;22.00;99.90
7934;DHT22;4012;48.896;9.192;2023-08-30T13:10:24;22.10;99.90
7934;DHT22;4012;48.896;9.192;2023-08-30T13:12:49;21.60;99.90
7934;DHT22;4012;48.896;9.192;2023-08-30T13:15:15;21.80;99.90
7934;DHT22;4012;48.896;9.192;2023-08-30T13:17:42;22.10;99.90
7934;DHT22;4012;48.896;9.192;2023-08-30T13:20:08;22.30;99.90
7934;DHT22;4012;48.896;9.192;2023-08-30T13:22:36;22.30;99.90
7934;DHT22;4012;48.896;9.192;2023-08-30T13:25:02;22.20;99.90
7934;DHT22;4012;48.896;9.192;2023-08-30T13:27:29;22.50;99.90
7934;DHT22;4012;48.896;9.192;2023-08-30T13:29:55;22.40;99.90
7934;DHT22;4012;48.896;9.192;2023-08-30T13:32:20;22.30;99.90
7934;DHT22;4012;48.896;9.192;2023-08-30T13:34:46;22.60;99.90
7934;DHT22;4012;48.896;9.192;2023-08-30T13:37:12;22.40;99.90
7934;DHT22;4012;48.896;9.192;2023-08-30T13:39:39;22.60;99.90
7934;DHT22;4012;48.896;9.192;2023-08-30T13:42:05;22.40;99.90
7934;DHT22;4012;48.896;9.192;2023-08-30T13:44:31;22.00;99.90
7934;DHT22;4012;48.896;9.192;2023-08-30T13:46:57;22.00;99.90
7934;DHT22;4012;48.896;9.192;2023-08-30T13:49:23;22.30;99.90
7934;DHT22;4012;48.896;9.192;2023-08-30T13:51:48;22.10;99.90
7934;DHT22;4012;48.896;9.192;2023-08-30T13:54:14;22.10;99.90
7934;DHT22;4012;48.896;9.192;2023-08-30T13:56:40;22.10;99.90
7934;DHT22;4012;48.896;9.192;2023-08-30T13:59:07;22.10;99.90
7934;DHT22;4012;48.896;9.192;2023-08-30T14:01:33;22.00;99.90
7934;DHT22;4012;48.896;9.192;2023-08-30T14:04:00;22.10;99.90
7934;DHT22;4012;48.896;9.192;2023-08-30T14:06:26;22.10;99.90
7934;DHT22;4012;48.896;9.192;2023-08-30T14:08:51;21.90;99.90
7934;DHT22;4012;48.896;9.192;2023-08-30T14:11:17;21.60;99.90
7934;DHT22;4012;48.896;9.192;2023-08-30T14:13:42;21.30;99.90
7934;DHT22;4012;48.896;9.192;2023-08-30T14:16:08;21.10;99.90
7934;DHT22;4012;48.896;9.192;2023-08-30T14:18:35;21.10;99.90
7934;DHT22;4012;48.896;9.192;2023-08-30T14:21:01;21.00;99.90
7934;DHT22;4012;48.896;9.192;2023-08-30T14:23:28;21.10;99.90
7934;DHT22;4012;48.896;9.192;2023-08-30T14:26:04;21.20;99.90
7934;DHT22;4012;48.896;9.192;2023-08-30T14:28:36;21.20;99.90
7934;DHT22;4012;48.896;9.192;2023-08-30T14:31:02;21.00;99.90
7934;DHT22;4012;48.896;9.192;2023-08-30T14:33:30;21.10;99.90
7934;DHT22;4012;48.896;9.192;2023-08-30T14:35:55;21.10;99.90
7934;DHT22;4012;48.896;9.192;2023-08-30T14:38:22;21.00;99.90
7934;DHT22;4012;48.896;9.192;2023-08-30T14:41:05;20.90;99.90
7934;DHT22;4012;48.896;9.192;2023-08-30T14:43:32;20.80;99.90
7934;DHT22;4012;48.896;9.192;2023-08-30T14:46:02;20.90;99.90
7934;DHT22;4012;48.896;9.192;2023-08-30T14:48:28;21.00;99.90
7934;DHT22;4012;48.896;9.192;2023-08-30T14:50:54;20.80;99.90
7934;DHT22;4012;48.896;9.192;2023-08-30T14:53:20;20.90;99.90
7934;DHT22;4012;48.896;9.192;2023-08-30T14:55:46;20.70;99.90
7934;DHT22;4012;48.896;9.192;2023-08-30T14:58:12;20.70;99.90
7934;DHT22;4012;48.896;9.192;2023-08-30T15:00:38;20.60;99.90
7934;DHT22;4012;48.896;9.192;2023-08-30T15:03:04;20.60;99.90
7934;DHT22;4012;48.896;9.192;2023-08-30T15:05:29;20.50;99.90
7934;DHT22;4012;48.896;9.192;2023-08-30T15:07:55;20.30;99.90
7934;DHT22;4012;48.896;9.192;2023-08-30T15:10:21;20.20;99.90
7934;DHT22;4012;48.896;9.192;2023-08-30T15:12:46;20.20;99.90
7934;DHT22;4012;48.896;9.192;2023-08-30T15:15:14;20.30;99.90
7934;DHT22;4012;48.896;9.192;2023-08-30T15:17:39;20.10;99.90
7934;DHT22;4012;48.896;9.192;2023-08-30T15:20:07;20.10;99.90
7934;DHT22;4012;48.896;9.192;2023-08-30T15:22:33;20.20;99.90
7934;DHT22;4012;48.896;9.192;2023-08-30T15:24:59;20.40;99.90
7934;DHT22;4012;48.896;9.192;2023-08-30T15:27:30;20.40;99.90
7934;DHT22;4012;48.896;9.192;2023-08-30T15:29:55;20.70;99.90
7934;DHT22;4012;48.896;9.192;2023-08-30T15:32:24;20.80;99.90
7934;DHT22;4012;48.896;9.192;2023-08-30T15:34:50;20.90;99.90
7934;DHT22;4012;48.896;9.192;2023-08-30T15:37:16;21.00;99.90
7934;DHT22;4012;48.896;9.192;2023-08-30T15:39:42;21.00;99.90
7934;DHT22;4012;48.896;9.192;2023-08-30T15:42:08;20.80;99.90
7934;DHT22;4012;48.896;9.192;2023-08-30T15:44:34;20.70;99.90
7934;DHT22;4012;48.896;9.192;2023-08-30T15:46:59;20.50;99.90
7934;DHT22;4012;48.896;9.192;2023-08-30T15:49:25;20.40;99.90
7934;DHT22;4012;48.896;9.192;2023-08-30T15:51:50;20.40;99.90
7934;DHT22;4012;48.896;9.192;2023-08-30T15:54:16;20.40;99.90
7934;DHT22;4012;48.896;9.192;2023-08-30T15:56:42;20.50;99.90
7934;DHT22;4012;48.896;9.192;2023-08-30T15:59:09;20.60;99.90
7934;DHT22;4012;48.896;9.192;2023-08-30T16:01:35;20.80;99.90
7934;DHT22;4012;48.896;9.192;2023-08-30T16:04:01;20.80;99.90
7934;DHT22;4012;48.896;9.192;2023-08-30T16:06:27;20.80;99.90